Time;durP1;ratioP1;P1;durP2;ratioP2;P2;SDS_P1;SDS_P2;PMS_P1;PMS_P2;Temp;Humidity;BMP_temperature;BMP_pressure;BME280_temperature;BME280_humidity;BME280_pressure;Samples;Min_cycle;Max_cycle;Signal;HPM_P1;HPM_P2
2021/09/09 04:52:41;;;;;;;20.50;15.02;;;;;;;;;;4981020;23;19922;-70
2021/09/09 04:55:08;;;;;;;20.95;15.38;;;;;;;;;;4969796;28;20589;-69
2021/09/09 04:57:36;;;;;;;18.83;14.52;;;;;;;;;;4970324;28;20041;-69
2021/09/09 05:00:03;;;;;;;17.40;14.93;;;;;;;;;;4970064;28;20043;-70
2021/09/09 05:02:30;;;;;;;19.00;14.75;;;;;;;;;;4950093;28;20054;-70
2021/09/09 05:04:57;;;;;;;19.73;14.55;;;;;;;;;;4988446;23;20445;-72
2021/09/09 05:07:25;;;;;;;18.35;14.38;;;;;;;;;;5009983;28;20050;-71
2021/09/09 05:09:53;;;;;;;18.10;15.43;;;;;;;;;;5008923;28;20068;-70
2021/09/09 05:12:21;;;;;;;15.98;14.23;;;;;;;;;;5008812;28;20386;-69
2021/09/09 05:14:48;;;;;;;17.95;15.52;;;;;;;;;;4978521;28;20070;-72
2021/09/09 05:17:15;;;;;;;16.73;14.65;;;;;;;;;;4990324;28;20437;-71
2021/09/09 05:19:42;;;;;;;17.48;14.27;;;;;;;;;;4992061;28;20035;-70
2021/09/09 05:22:10;;;;;;;18.23;14.98;;;;;;;;;;4970138;28;20043;-71
2021/09/09 05:24:37;;;;;;;19.88;15.13;;;;;;;;;;4990060;28;20046;-71
2021/09/09 05:27:06;;;;;;;19.13;15.90;;;;;;;;;;4972851;28;20122;-71
2021/09/09 05:29:33;;;;;;;16.35;14.35;;;;;;;;;;4982559;28;20490;-70
2021/09/09 05:32:01;;;;;;;21.58;15.15;;;;;;;;;;4987766;28;20034;-72
2021/09/09 05:34:28;;;;;;;18.98;15.07;;;;;;;;;;4984793;28;20498;-71
2021/09/09 05:36:55;;;;;;;18.92;13.77;;;;;;;;;;4990940;28;20133;-71
2021/09/09 05:39:22;;;;;;;24.10;13.90;;;;;;;;;;4983171;28;20042;-71
2021/09/09 05:41:50;;;;;;;18.63;14.77;;;;;;;;;;4986374;28;20110;-70
2021/09/09 05:44:18;;;;;;;18.08;14.05;;;;;;;;;;4987790;28;20046;-73
2021/09/09 05:46:47;;;;;;;18.38;14.57;;;;;;;;;;4982562;28;20053;-73
2021/09/09 05:49:14;;;;;;;15.60;13.93;;;;;;;;;;4985156;28;20038;-71
2021/09/09 05:51:41;;;;;;;18.30;13.18;;;;;;;;;;4987115;28;20130;-73
2021/09/09 05:54:09;;;;;;;20.88;13.32;;;;;;;;;;4988445;28;20121;-70
2021/09/09 05:56:36;;;;;;;22.52;14.07;;;;;;;;;;4988960;28;20038;-71
2021/09/09 05:59:03;;;;;;;21.60;13.27;;;;;;;;;;4971953;28;20145;-71
2021/09/09 06:01:32;;;;;;;19.70;12.55;;;;;;;;;;4990264;28;20038;-71
2021/09/09 06:04:00;;;;;;;17.23;12.77;;;;;;;;;;4967360;28;20059;-70
2021/09/09 06:06:27;;;;;;;18.27;12.30;;;;;;;;;;4967000;28;20070;-71
2021/09/09 06:08:56;;;;;;;20.42;11.88;;;;;;;;;;4989828;28;20046;-71
2021/09/09 06:11:23;;;;;;;18.23;12.10;;;;;;;;;;4990438;28;20528;-71
2021/09/09 06:13:51;;;;;;;21.40;12.20;;;;;;;;;;4971674;28;20042;-72
2021/09/09 06:16:19;;;;;;;18.35;12.90;;;;;;;;;;4990571;28;20038;-71
2021/09/09 06:18:47;;;;;;;18.35;13.45;;;;;;;;;;4990497;28;20047;-72
2021/09/09 06:21:15;;;;;;;23.77;14.10;;;;;;;;;;4990122;28;20121;-71
2021/09/09 06:23:42;;;;;;;26.38;17.05;;;;;;;;;;4988352;28;20043;-71
2021/09/09 06:26:09;;;;;;;26.25;15.82;;;;;;;;;;4989842;28;20042;-71
2021/09/09 06:28:37;;;;;;;24.17;16.85;;;;;;;;;;4989104;28;20042;-72
2021/09/09 06:31:04;;;;;;;27.60;17.92;;;;;;;;;;4991292;28;20502;-74
2021/09/09 06:33:31;;;;;;;25.38;16.15;;;;;;;;;;4990042;28;20061;-72
2021/09/09 06:36:00;;;;;;;19.92;13.70;;;;;;;;;;4989230;28;20082;-72
2021/09/09 06:38:27;;;;;;;18.33;13.48;;;;;;;;;;4989784;28;20042;-72
2021/09/09 06:40:54;;;;;;;18.70;12.60;;;;;;;;;;4989726;28;20049;-70
2021/09/09 06:43:22;;;;;;;14.77;12.18;;;;;;;;;;4990755;28;20034;-70
2021/09/09 06:45:49;;;;;;;13.10;11.73;;;;;;;;;;4989619;28;20039;-71
2021/09/09 06:48:16;;;;;;;13.65;11.27;;;;;;;;;;4989775;28;20031;-72
2021/09/09 06:50:45;;;;;;;17.65;11.90;;;;;;;;;;4989845;28;20074;-72
2021/09/09 06:53:13;;;;;;;15.45;11.68;;;;;;;;;;4989785;28;20042;-71
2021/09/09 06:55:40;;;;;;;16.23;12.10;;;;;;;;;;4988645;28;20060;-71
2021/09/09 06:58:09;;;;;;;19.10;11.82;;;;;;;;;;4987153;28;20050;-73
2021/09/09 07:00:36;;;;;;;21.02;11.40;;;;;;;;;;4990533;28;20043;-71
2021/09/09 07:03:03;;;;;;;13.70;12.30;;;;;;;;;;4996210;28;20050;-72
2021/09/09 07:05:31;;;;;;;21.10;12.23;;;;;;;;;;4998157;28;20072;-72
2021/09/09 07:07:58;;;;;;;16.80;11.63;;;;;;;;;;4994926;28;20486;-72
2021/09/09 07:10:27;;;;;;;15.32;11.48;;;;;;;;;;4993304;28;20315;-72
2021/09/09 07:12:54;;;;;;;15.15;11.85;;;;;;;;;;4992359;28;20042;-72
2021/09/09 07:15:21;;;;;;;15.45;11.35;;;;;;;;;;4993969;28;20042;-73
2021/09/09 07:17:48;;;;;;;13.15;10.45;;;;;;;;;;4994100;28;20605;-73
2021/09/09 07:20:16;;;;;;;13.48;11.73;;;;;;;;;;4987264;28;20061;-72
2021/09/09 07:22:43;;;;;;;13.25;11.63;;;;;;;;;;4971374;28;20545;-72
2021/09/09 07:25:11;;;;;;;13.75;12.43;;;;;;;;;;4975020;28;20453;-72
2021/09/09 07:27:39;;;;;;;18.45;12.27;;;;;;;;;;4991593;28;20379;-72
2021/09/09 07:30:07;;;;;;;14.30;12.52;;;;;;;;;;4992460;28;20064;-72
2021/09/09 07:32:35;;;;;;;14.63;11.65;;;;;;;;;;4985829;28;20049;-72
2021/09/09 07:35:03;;;;;;;12.55;11.00;;;;;;;;;;4991813;28;20049;-72
2021/09/09 07:37:31;;;;;;;12.23;10.65;;;;;;;;;;4973785;28;20053;-72
2021/09/09 07:39:58;;;;;;;13.65;11.38;;;;;;;;;;4992964;28;20088;-72
2021/09/09 07:42:25;;;;;;;13.98;11.68;;;;;;;;;;4992022;28;20050;-73
2021/09/09 07:44:54;;;;;;;14.70;11.23;;;;;;;;;;4992676;28;20045;-72
2021/09/09 07:47:21;;;;;;;13.73;11.23;;;;;;;;;;4993325;28;20072;-72
2021/09/09 07:49:48;;;;;;;12.80;10.93;;;;;;;;;;4992251;28;20331;-72
2021/09/09 07:52:16;;;;;;;12.88;11.07;;;;;;;;;;4992589;28;20039;-72
2021/09/09 07:54:43;;;;;;;14.93;12.38;;;;;;;;;;4991809;28;20042;-72
2021/09/09 07:57:11;;;;;;;14.82;11.25;;;;;;;;;;4993239;28;20494;-72
2021/09/09 07:59:38;;;;;;;13.48;10.95;;;;;;;;;;4984413;28;20057;-72
2021/09/09 08:02:06;;;;;;;13.32;10.65;;;;;;;;;;4993377;28;20039;-73
2021/09/09 08:04:34;;;;;;;12.75;11.45;;;;;;;;;;4973221;28;20089;-71
2021/09/09 08:07:01;;;;;;;12.88;10.85;;;;;;;;;;4972619;28;20058;-71
2021/09/09 08:09:28;;;;;;;12.50;11.25;;;;;;;;;;4973815;28;20392;-71
2021/09/09 08:11:56;;;;;;;21.30;11.07;;;;;;;;;;4972068;28;20102;-71
2021/09/09 08:14:23;;;;;;;11.55;10.35;;;;;;;;;;4974003;28;20495;-71
2021/09/09 08:16:51;;;;;;;12.95;10.75;;;;;;;;;;4971576;28;20039;-71
2021/09/09 08:19:19;;;;;;;12.15;10.10;;;;;;;;;;4973041;28;20499;-71
2021/09/09 08:21:46;;;;;;;14.25;11.27;;;;;;;;;;4972098;28;20046;-71
2021/09/09 08:24:14;;;;;;;14.10;10.70;;;;;;;;;;4970969;28;20486;-71
2021/09/09 08:26:41;;;;;;;16.75;11.65;;;;;;;;;;4972338;28;20057;-71
2021/09/09 08:29:08;;;;;;;13.38;11.10;;;;;;;;;;4971247;28;20064;-72
2021/09/09 08:31:36;;;;;;;12.07;10.98;;;;;;;;;;4972351;28;20043;-72
2021/09/09 08:34:05;;;;;;;18.05;11.10;;;;;;;;;;4971078;28;20039;-72
2021/09/09 08:36:33;;;;;;;15.55;11.75;;;;;;;;;;4982726;28;20058;-72
2021/09/09 08:39:01;;;;;;;13.00;11.63;;;;;;;;;;4971311;28;20046;-71
2021/09/09 08:41:28;;;;;;;12.38;11.07;;;;;;;;;;4972177;28;20199;-71
2021/09/09 08:43:55;;;;;;;16.17;12.35;;;;;;;;;;4971350;28;20042;-70
2021/09/09 08:46:23;;;;;;;13.50;11.02;;;;;;;;;;4972096;28;20057;-72
2021/09/09 08:48:50;;;;;;;12.60;11.27;;;;;;;;;;4971879;28;20505;-71
2021/09/09 08:51:18;;;;;;;15.07;11.43;;;;;;;;;;4973162;28;20061;-71
2021/09/09 08:53:47;;;;;;;17.23;11.70;;;;;;;;;;4971767;28;20410;-72
2021/09/09 08:56:14;;;;;;;19.02;12.18;;;;;;;;;;4971615;28;20042;-72
2021/09/09 08:58:42;;;;;;;15.90;11.48;;;;;;;;;;4973803;28;20050;-71
2021/09/09 09:01:10;;;;;;;15.25;11.63;;;;;;;;;;4970683;28;20129;-72
2021/09/09 09:03:50;;;;;;;17.50;13.52;;;;;;;;;;4972791;28;20525;-71
2021/09/09 09:06:32;;;;;;;14.10;12.55;;;;;;;;;;4967337;28;20059;-72
2021/09/09 09:09:02;;;;;;;15.73;14.13;;;;;;;;;;4973210;28;20047;-71
2021/09/09 09:11:31;;;;;;;14.70;12.88;;;;;;;;;;4972254;28;20074;-72
2021/09/09 09:13:58;;;;;;;16.15;13.40;;;;;;;;;;4969598;28;20043;-71
2021/09/09 09:16:26;;;;;;;15.30;13.52;;;;;;;;;;4971571;28;20491;-72
2021/09/09 09:18:57;;;;;;;16.02;13.98;;;;;;;;;;4972670;28;20061;-71
2021/09/09 09:21:24;;;;;;;18.55;14.00;;;;;;;;;;4970205;28;20495;-72
2021/09/09 09:23:53;;;;;;;16.38;14.43;;;;;;;;;;4971129;28;20483;-72
2021/09/09 09:26:21;;;;;;;20.50;13.43;;;;;;;;;;4971275;28;20121;-71
2021/09/09 09:28:50;;;;;;;14.82;13.35;;;;;;;;;;4971245;28;20046;-72
2021/09/09 09:31:18;;;;;;;19.38;14.55;;;;;;;;;;4967562;28;20081;-72
2021/09/09 09:33:46;;;;;;;17.15;14.02;;;;;;;;;;4971491;28;20379;-72
2021/09/09 09:36:15;;;;;;;18.70;15.13;;;;;;;;;;4969411;28;20042;-72
2021/09/09 09:38:42;;;;;;;16.48;14.38;;;;;;;;;;4969873;28;20046;-71
2021/09/09 09:41:09;;;;;;;18.90;13.65;;;;;;;;;;4970135;28;20046;-72
2021/09/09 09:43:38;;;;;;;14.80;12.88;;;;;;;;;;4970717;28;20042;-71
2021/09/09 09:46:05;;;;;;;16.27;12.57;;;;;;;;;;4972322;28;20045;-71
2021/09/09 09:48:35;;;;;;;20.15;14.45;;;;;;;;;;4967279;28;20053;-71
2021/09/09 09:51:02;;;;;;;17.38;13.63;;;;;;;;;;4971006;28;20549;-70
2021/09/09 09:53:30;;;;;;;18.58;14.80;;;;;;;;;;4971314;28;20121;-71
2021/09/09 09:55:58;;;;;;;18.92;14.70;;;;;;;;;;4970649;28;20043;-71
2021/09/09 09:58:25;;;;;;;15.48;13.45;;;;;;;;;;4969740;28;20046;-71
2021/09/09 10:00:53;;;;;;;17.20;13.10;;;;;;;;;;4966762;28;20045;-71
2021/09/09 10:03:22;;;;;;;16.88;12.80;;;;;;;;;;4971610;28;20055;-71
2021/09/09 10:05:53;;;;;;;15.40;13.57;;;;;;;;;;4982409;28;20725;-71
2021/09/09 10:08:21;;;;;;;15.52;13.00;;;;;;;;;;4992796;28;20043;-71
2021/09/09 10:10:48;;;;;;;17.80;13.15;;;;;;;;;;4999244;28;20520;-72
2021/09/09 10:13:18;;;;;;;16.80;13.38;;;;;;;;;;5012672;28;20070;-72
2021/09/09 10:15:46;;;;;;;16.80;13.55;;;;;;;;;;5005437;28;20101;-72
2021/09/09 10:18:16;;;;;;;20.13;12.52;;;;;;;;;;4995838;28;20045;-71
2021/09/09 10:20:44;;;;;;;14.43;12.88;;;;;;;;;;4994226;28;20433;-72
2021/09/09 10:23:12;;;;;;;17.55;12.77;;;;;;;;;;4992868;28;20042;-71
2021/09/09 10:25:44;;;;;;;15.15;11.93;;;;;;;;;;4993677;28;20133;-71
2021/09/09 10:28:30;;;;;;;17.40;11.52;;;;;;;;;;4993533;28;20093;-70
2021/09/09 10:31:04;;;;;;;16.38;11.27;;;;;;;;;;4995510;28;20042;-71
2021/09/09 10:33:33;;;;;;;12.63;11.43;;;;;;;;;;4983824;28;20493;-71
2021/09/09 10:36:00;;;;;;;12.48;10.57;;;;;;;;;;4975451;28;20042;-71
2021/09/09 10:38:29;;;;;;;13.98;10.25;;;;;;;;;;4995272;28;20553;-71
2021/09/09 10:40:58;;;;;;;13.43;9.98;;;;;;;;;;4993646;28;20047;-71
2021/09/09 10:43:46;;;;;;;14.27;9.88;;;;;;;;;;4975106;28;20057;-71
2021/09/09 10:46:13;;;;;;;11.60;9.95;;;;;;;;;;4996706;28;20213;-71
2021/09/09 10:48:43;;;;;;;13.73;10.77;;;;;;;;;;4994809;28;20039;-71
2021/09/09 10:51:12;;;;;;;11.88;10.38;;;;;;;;;;4996467;28;20125;-72
2021/09/09 10:53:40;;;;;;;13.13;10.73;;;;;;;;;;4995307;28;20098;-71
2021/09/09 10:56:09;;;;;;;12.07;10.20;;;;;;;;;;4977853;28;20073;-72
2021/09/09 10:58:36;;;;;;;12.20;10.32;;;;;;;;;;4994505;28;20046;-71
2021/09/09 11:01:05;;;;;;;12.32;9.20;;;;;;;;;;4993318;28;20074;-72
2021/09/09 11:03:39;;;;;;;15.98;9.57;;;;;;;;;;4994817;28;20119;-71
2021/09/09 11:06:09;;;;;;;13.80;9.32;;;;;;;;;;5010224;23;20590;-82
2021/09/09 11:08:36;;;;;;;12.93;9.52;;;;;;;;;;5005609;28;20042;-81
2021/09/09 11:11:05;;;;;;;11.35;9.57;;;;;;;;;;5020671;28;20674;-81
2021/09/09 11:13:33;;;;;;;9.77;8.88;;;;;;;;;;5031114;28;20045;-82
2021/09/09 11:16:01;;;;;;;9.18;8.20;;;;;;;;;;5029870;28;20087;-81
2021/09/09 11:18:29;;;;;;;9.20;8.25;;;;;;;;;;5030047;28;20438;-82
2021/09/09 11:21:03;;;;;;;14.57;8.90;;;;;;;;;;5016513;28;20626;-82
2021/09/09 11:23:31;;;;;;;13.52;7.72;;;;;;;;;;5031494;28;20045;-82
2021/09/09 11:26:09;;;;;;;13.77;8.15;;;;;;;;;;5030420;28;20057;-82
2021/09/09 11:28:36;;;;;;;13.60;8.23;;;;;;;;;;5030218;28;20060;-83
2021/09/09 11:31:07;;;;;;;13.93;8.38;;;;;;;;;;5031059;28;20145;-82
2021/09/09 11:33:46;;;;;;;11.93;8.07;;;;;;;;;;5027632;28;20128;-82
2021/09/09 11:36:13;;;;;;;12.75;8.13;;;;;;;;;;5029717;28;20128;-82
2021/09/09 11:38:42;;;;;;;9.70;7.85;;;;;;;;;;5030578;28;20051;-82
2021/09/09 11:41:11;;;;;;;18.38;9.25;;;;;;;;;;5031421;28;20121;-82
2021/09/09 11:43:39;;;;;;;11.50;7.20;;;;;;;;;;5023825;28;20070;-82
2021/09/09 11:46:07;;;;;;;8.82;7.38;;;;;;;;;;5019784;28;20041;-82
2021/09/09 11:48:34;;;;;;;8.93;8.02;;;;;;;;;;5028580;28;20047;-81
2021/09/09 11:51:01;;;;;;;10.45;7.20;;;;;;;;;;5025949;28;20041;-82
2021/09/09 11:53:29;;;;;;;11.07;7.88;;;;;;;;;;5022164;28;20642;-82
2021/09/09 11:55:58;;;;;;;11.30;7.65;;;;;;;;;;5023700;28;20041;-84
2021/09/09 11:58:32;;;;;;;11.70;7.45;;;;;;;;;;5017001;28;20085;-84
2021/09/09 12:01:01;;;;;;;14.05;8.13;;;;;;;;;;5022696;28;20040;-84
2021/09/09 12:03:29;;;;;;;9.68;8.05;;;;;;;;;;5011943;28;20579;-84
2021/09/09 12:05:56;;;;;;;11.52;8.45;;;;;;;;;;5010388;28;20495;-84
2021/09/09 12:08:24;;;;;;;13.63;7.70;;;;;;;;;;5025374;28;20040;-83
2021/09/09 12:10:51;;;;;;;10.18;7.82;;;;;;;;;;5025808;28;20042;-85
2021/09/09 12:13:33;;;;;;;12.25;8.35;;;;;;;;;;5030890;28;20037;-84
2021/09/09 12:16:10;;;;;;;14.48;8.85;;;;;;;;;;5023401;28;20526;-84
2021/09/09 12:18:38;;;;;;;11.52;8.10;;;;;;;;;;5026660;28;20111;-85
2021/09/09 12:21:09;;;;;;;10.00;8.07;;;;;;;;;;5010145;28;20038;-86
2021/09/09 12:23:36;;;;;;;10.25;8.20;;;;;;;;;;5030957;28;20043;-85
2021/09/09 12:26:17;;;;;;;11.30;8.93;;;;;;;;;;5029069;28;20380;-85
2021/09/09 12:28:46;;;;;;;9.68;8.68;;;;;;;;;;5012084;28;20046;-84
2021/09/09 12:31:13;;;;;;;13.50;9.25;;;;;;;;;;5030467;28;20042;-83
2021/09/09 12:33:41;;;;;;;12.60;9.05;;;;;;;;;;5028742;28;20033;-84
2021/09/09 12:36:10;;;;;;;11.05;7.90;;;;;;;;;;5027718;28;20037;-84
2021/09/09 12:38:41;;;;;;;14.32;8.32;;;;;;;;;;5025701;28;20046;-85
2021/09/09 12:41:08;;;;;;;13.70;8.25;;;;;;;;;;5017753;28;20041;-84
2021/09/09 12:43:38;;;;;;;12.50;7.90;;;;;;;;;;5010282;28;20499;-84
2021/09/09 12:46:07;;;;;;;14.88;8.40;;;;;;;;;;5031376;28;20075;-85
2021/09/09 12:48:35;;;;;;;11.27;8.23;;;;;;;;;;5007361;28;20048;-86
2021/09/09 12:51:03;;;;;;;13.77;8.30;;;;;;;;;;5010852;28;20085;-86
2021/09/09 12:53:32;;;;;;;9.90;8.07;;;;;;;;;;5009954;28;20553;-86
2021/09/09 12:56:04;;;;;;;11.55;7.55;;;;;;;;;;5005963;28;20492;-84
2021/09/09 12:58:31;;;;;;;12.82;8.10;;;;;;;;;;5011184;28;20033;-82
2021/09/09 13:01:01;;;;;;;8.38;7.60;;;;;;;;;;5046465;28;20708;-83
2021/09/09 13:03:31;;;;;;;12.05;7.93;;;;;;;;;;5030642;28;20049;-84
2021/09/09 13:05:59;;;;;;;12.23;7.85;;;;;;;;;;5046482;28;20065;-84
2021/09/09 13:08:27;;;;;;;9.82;8.10;;;;;;;;;;5023925;28;20026;-84
2021/09/09 13:10:54;;;;;;;11.40;7.50;;;;;;;;;;5048657;28;20041;-84
2021/09/09 13:13:22;;;;;;;12.93;7.43;;;;;;;;;;5050101;28;20041;-84
2021/09/09 13:15:49;;;;;;;10.13;7.20;;;;;;;;;;5026592;28;20038;-83
2021/09/09 13:18:17;;;;;;;14.80;8.32;;;;;;;;;;5024646;28;20545;-83
2021/09/09 13:20:46;;;;;;;8.75;7.65;;;;;;;;;;5022705;28;20122;-82
2021/09/09 13:23:13;;;;;;;13.32;7.45;;;;;;;;;;5025222;28;20048;-83
2021/09/09 13:25:42;;;;;;;12.35;7.88;;;;;;;;;;5027636;28;20042;-84
2021/09/09 13:28:09;;;;;;;11.43;7.80;;;;;;;;;;5025551;28;20076;-83
2021/09/09 13:30:37;;;;;;;10.65;8.13;;;;;;;;;;5022955;28;20041;-84
2021/09/09 13:33:05;;;;;;;12.23;8.00;;;;;;;;;;5028326;28;20128;-84
2021/09/09 13:35:33;;;;;;;7.88;7.13;;;;;;;;;;5016659;28;20061;-84
2021/09/09 13:38:02;;;;;;;9.85;8.13;;;;;;;;;;4999976;28;20491;-84
2021/09/09 13:40:30;;;;;;;9.52;7.47;;;;;;;;;;5021109;28;20430;-84
2021/09/09 13:42:57;;;;;;;15.63;7.53;;;;;;;;;;5010716;28;20048;-84
2021/09/09 13:45:24;;;;;;;12.50;8.00;;;;;;;;;;5024241;28;20127;-84
2021/09/09 13:47:52;;;;;;;11.35;7.57;;;;;;;;;;5023777;28;20119;-84
2021/09/09 13:50:19;;;;;;;12.95;7.80;;;;;;;;;;5027227;28;20042;-84
2021/09/09 13:52:50;;;;;;;10.27;6.80;;;;;;;;;;5024265;28;20638;-84
2021/09/09 13:55:19;;;;;;;12.25;7.03;;;;;;;;;;5023922;28;20526;-84
2021/09/09 13:57:46;;;;;;;15.68;7.15;;;;;;;;;;5021040;28;20100;-83
2021/09/09 14:00:14;;;;;;;9.43;7.13;;;;;;;;;;5009600;28;20677;-83
2021/09/09 14:02:41;;;;;;;14.30;7.82;;;;;;;;;;5023754;28;20686;-83
2021/09/09 14:05:11;;;;;;;12.68;7.25;;;;;;;;;;5025801;28;20104;-83
2021/09/09 14:07:38;;;;;;;13.15;7.30;;;;;;;;;;5024492;28;20111;-84
2021/09/09 14:10:06;;;;;;;8.93;7.30;;;;;;;;;;4994039;28;20060;-84
2021/09/09 14:12:35;;;;;;;9.57;7.18;;;;;;;;;;5027267;28;20117;-85
2021/09/09 14:15:03;;;;;;;8.60;6.70;;;;;;;;;;5025564;28;20050;-84
2021/09/09 14:17:30;;;;;;;9.70;6.85;;;;;;;;;;5029522;28;20033;-83
2021/09/09 14:19:58;;;;;;;9.88;7.30;;;;;;;;;;5026520;28;20046;-84
2021/09/09 14:22:25;;;;;;;12.00;7.28;;;;;;;;;;5029631;28;20034;-83
2021/09/09 14:24:53;;;;;;;10.27;6.78;;;;;;;;;;5028699;28;20060;-83
2021/09/09 14:27:20;;;;;;;10.98;7.22;;;;;;;;;;5028202;28;20044;-82
2021/09/09 14:29:49;;;;;;;15.02;6.85;;;;;;;;;;5033839;28;20026;-84
2021/09/09 14:32:16;;;;;;;7.90;7.10;;;;;;;;;;5015520;28;20053;-83
2021/09/09 14:34:45;;;;;;;9.65;7.15;;;;;;;;;;5031334;28;20037;-83
2021/09/09 14:37:13;;;;;;;10.98;7.03;;;;;;;;;;5029386;28;20116;-83
2021/09/09 14:39:41;;;;;;;8.90;6.72;;;;;;;;;;5010217;28;20033;-83
2021/09/09 14:42:08;;;;;;;7.57;6.60;;;;;;;;;;5028127;28;20571;-83
2021/09/09 14:44:36;;;;;;;15.93;7.45;;;;;;;;;;5027623;28;20046;-83
2021/09/09 14:47:05;;;;;;;10.88;6.45;;;;;;;;;;5014336;28;20108;-83
2021/09/09 14:49:34;;;;;;;9.73;5.85;;;;;;;;;;5027795;28;20493;-83
2021/09/09 14:52:01;;;;;;;9.50;6.63;;;;;;;;;;5030320;28;20404;-83
2021/09/09 14:54:31;;;;;;;9.98;6.53;;;;;;;;;;5011255;28;20107;-84
2021/09/09 14:56:58;;;;;;;9.98;6.32;;;;;;;;;;5026358;28;20124;-83
2021/09/09 14:59:26;;;;;;;11.55;6.70;;;;;;;;;;5009680;28;20037;-84
2021/09/09 15:01:53;;;;;;;14.27;5.80;;;;;;;;;;5012209;28;20042;-85
2021/09/09 15:04:24;;;;;;;8.93;6.38;;;;;;;;;;5003212;28;20053;-85
2021/09/09 15:06:52;;;;;;;22.67;7.88;;;;;;;;;;5021390;28;20037;-85
2021/09/09 15:09:19;;;;;;;12.32;6.22;;;;;;;;;;5009042;28;20095;-84
2021/09/09 15:11:47;;;;;;;15.13;6.88;;;;;;;;;;5025013;28;20046;-85
2021/09/09 15:14:14;;;;;;;11.43;6.43;;;;;;;;;;5022824;28;20054;-85
2021/09/09 15:16:42;;;;;;;15.18;6.38;;;;;;;;;;5025643;28;20113;-85
2021/09/09 15:19:09;;;;;;;7.78;6.25;;;;;;;;;;5029280;28;20103;-85
2021/09/09 15:21:38;;;;;;;10.60;6.30;;;;;;;;;;5024182;28;20084;-85
2021/09/09 15:24:06;;;;;;;10.88;6.15;;;;;;;;;;5026687;28;20038;-85
2021/09/09 15:26:35;;;;;;;11.50;6.30;;;;;;;;;;5019452;28;20053;-85
2021/09/09 15:29:05;;;;;;;7.78;5.95;;;;;;;;;;5009404;28;20053;-85
2021/09/09 15:31:32;;;;;;;10.15;6.07;;;;;;;;;;5029802;28;20049;-84
2021/09/09 15:33:59;;;;;;;6.60;5.97;;;;;;;;;;5028185;28;20045;-84
2021/09/09 15:36:31;;;;;;;6.72;5.97;;;;;;;;;;5024702;28;20570;-84
2021/09/09 15:39:00;;;;;;;8.00;5.75;;;;;;;;;;5028362;28;20517;-84
2021/09/09 15:41:27;;;;;;;8.05;6.68;;;;;;;;;;5029160;28;20128;-84
2021/09/09 15:43:54;;;;;;;8.88;6.80;;;;;;;;;;5025092;28;20038;-83
2021/09/09 15:46:22;;;;;;;10.73;6.93;;;;;;;;;;5018792;28;20072;-83
2021/09/09 15:48:50;;;;;;;7.18;6.35;;;;;;;;;;5009942;28;20141;-84
2021/09/09 15:51:17;;;;;;;11.57;6.82;;;;;;;;;;5006740;28;20470;-84
2021/09/09 15:53:46;;;;;;;10.30;6.28;;;;;;;;;;5021629;28;20045;-84
2021/09/09 15:56:15;;;;;;;9.18;6.22;;;;;;;;;;5050626;28;20041;-85
2021/09/09 15:58:42;;;;;;;8.18;5.60;;;;;;;;;;5050838;28;20041;-85
2021/09/09 16:01:09;;;;;;;6.70;5.35;;;;;;;;;;5051732;28;20054;-84
2021/09/09 16:03:38;;;;;;;8.88;5.45;;;;;;;;;;5049418;28;20052;-84
2021/09/09 16:06:05;;;;;;;6.90;5.05;;;;;;;;;;5055553;28;20049;-84
2021/09/09 16:08:33;;;;;;;7.25;5.45;;;;;;;;;;5054795;28;20491;-85
2021/09/09 16:11:00;;;;;;;6.82;5.30;;;;;;;;;;5026863;28;20048;-84
2021/09/09 16:13:30;;;;;;;10.00;5.65;;;;;;;;;;5003585;28;20036;-84
2021/09/09 16:15:57;;;;;;;10.88;5.07;;;;;;;;;;5004605;28;20041;-84
2021/09/09 16:18:25;;;;;;;6.55;4.97;;;;;;;;;;5026179;28;20060;-84
2021/09/09 16:20:52;;;;;;;9.15;5.13;;;;;;;;;;5025192;28;20603;-83
2021/09/09 16:23:20;;;;;;;9.85;5.97;;;;;;;;;;5022642;28;20149;-84
2021/09/09 16:25:48;;;;;;;8.00;5.38;;;;;;;;;;5020551;28;20043;-84
2021/09/09 16:28:16;;;;;;;9.10;5.32;;;;;;;;;;5026427;28;20030;-84
2021/09/09 16:30:44;;;;;;;8.30;6.28;;;;;;;;;;5024533;28;20034;-83
2021/09/09 16:33:12;;;;;;;7.75;4.95;;;;;;;;;;5025796;28;20037;-83
2021/09/09 16:35:39;;;;;;;6.50;5.05;;;;;;;;;;5010763;28;20592;-83
2021/09/09 16:38:07;;;;;;;8.48;5.45;;;;;;;;;;5025382;28;20126;-84
2021/09/09 16:40:34;;;;;;;10.48;5.60;;;;;;;;;;5024670;28;20033;-83
2021/09/09 16:43:01;;;;;;;7.80;6.20;;;;;;;;;;5025386;28;20566;-82
2021/09/09 16:45:29;;;;;;;10.88;6.63;;;;;;;;;;5032112;28;20033;-83
2021/09/09 16:47:57;;;;;;;7.20;5.25;;;;;;;;;;5027138;28;20037;-83
2021/09/09 16:50:25;;;;;;;7.28;5.63;;;;;;;;;;5027300;28;20505;-83
2021/09/09 16:52:53;;;;;;;7.55;5.45;;;;;;;;;;5028369;28;20422;-83
2021/09/09 16:55:21;;;;;;;9.25;5.63;;;;;;;;;;5024456;28;20053;-83
2021/09/09 16:57:50;;;;;;;11.00;5.38;;;;;;;;;;5025521;28;20076;-84
2021/09/09 17:00:19;;;;;;;8.60;5.32;;;;;;;;;;5022595;28;20037;-83
2021/09/09 17:02:47;;;;;;;11.23;4.90;;;;;;;;;;5024769;28;20045;-85
2021/09/09 17:05:17;;;;;;;7.35;5.13;;;;;;;;;;5026212;28;20424;-83
2021/09/09 17:07:44;;;;;;;8.80;5.10;;;;;;;;;;5030287;28;20068;-84
2021/09/09 17:10:12;;;;;;;7.30;5.07;;;;;;;;;;5022816;28;20119;-84
2021/09/09 17:12:39;;;;;;;7.18;4.90;;;;;;;;;;5025023;28;20136;-84
2021/09/09 17:15:07;;;;;;;10.43;5.53;;;;;;;;;;5006747;28;20042;-84
2021/09/09 17:17:35;;;;;;;7.85;5.93;;;;;;;;;;5021699;28;20502;-85
2021/09/09 17:20:02;;;;;;;7.78;5.97;;;;;;;;;;5007819;28;20038;-84
2021/09/09 17:22:31;;;;;;;6.60;5.30;;;;;;;;;;5001059;28;20439;-84
2021/09/09 17:24:58;;;;;;;10.10;6.10;;;;;;;;;;5026883;28;20551;-84
2021/09/09 17:27:26;;;;;;;9.43;5.60;;;;;;;;;;5025112;28;20080;-85
2021/09/09 17:29:54;;;;;;;9.70;5.10;;;;;;;;;;5006531;28;20487;-84
2021/09/09 17:32:21;;;;;;;7.30;4.85;;;;;;;;;;5010218;28;20037;-84
2021/09/09 17:34:48;;;;;;;7.30;4.85;;;;;;;;;;5002250;28;20479;-84
2021/09/09 17:37:16;;;;;;;7.90;5.28;;;;;;;;;;5037303;28;20033;-85
2021/09/09 17:39:44;;;;;;;8.27;4.78;;;;;;;;;;5001582;28;20049;-86
2021/09/09 17:42:12;;;;;;;8.30;5.80;;;;;;;;;;5003038;28;20077;-85
2021/09/09 17:44:39;;;;;;;9.32;6.00;;;;;;;;;;5021937;28;20044;-84
2021/09/09 17:47:06;;;;;;;9.35;5.80;;;;;;;;;;5008907;28;20045;-85
2021/09/09 17:49:34;;;;;;;10.70;6.20;;;;;;;;;;5004239;28;20038;-84
2021/09/09 17:52:05;;;;;;;8.60;6.18;;;;;;;;;;5023459;28;20030;-85
2021/09/09 17:54:32;;;;;;;7.93;6.13;;;;;;;;;;5007753;28;20054;-84
2021/09/09 17:57:01;;;;;;;8.70;6.63;;;;;;;;;;5022563;28;20041;-85
2021/09/09 17:59:30;;;;;;;10.50;6.40;;;;;;;;;;5021350;28;20124;-85
2021/09/09 18:01:58;;;;;;;9.35;6.13;;;;;;;;;;5023731;28;20045;-84
2021/09/09 18:04:26;;;;;;;9.15;6.15;;;;;;;;;;5023250;28;20087;-85
2021/09/09 18:06:55;;;;;;;7.65;5.95;;;;;;;;;;5024404;28;20041;-84
2021/09/09 18:09:22;;;;;;;9.65;6.15;;;;;;;;;;5032229;28;20049;-83
2021/09/09 18:11:50;;;;;;;8.18;6.15;;;;;;;;;;5008072;28;20050;-83
2021/09/09 18:14:19;;;;;;;9.23;6.13;;;;;;;;;;5021622;28;20604;-85
2021/09/09 18:16:46;;;;;;;7.63;6.15;;;;;;;;;;5025888;28;20076;-85
2021/09/09 18:19:13;;;;;;;12.52;6.13;;;;;;;;;;5026921;28;20052;-85
2021/09/09 18:21:41;;;;;;;11.23;6.05;;;;;;;;;;5022870;28;20045;-84
2021/09/09 18:24:08;;;;;;;9.05;6.55;;;;;;;;;;5026844;28;20041;-84
2021/09/09 18:26:35;;;;;;;9.95;5.97;;;;;;;;;;5025912;28;20530;-82
2021/09/09 18:29:02;;;;;;;11.50;6.30;;;;;;;;;;5022571;28;20044;-83
2021/09/09 18:31:31;;;;;;;14.52;9.77;;;;;;;;;;5018740;28;20050;-82
2021/09/09 18:33:58;;;;;;;7.05;6.35;;;;;;;;;;5024807;28;20408;-83
2021/09/09 18:36:26;;;;;;;9.30;6.28;;;;;;;;;;5017414;28;20084;-83
2021/09/09 18:38:53;;;;;;;15.70;6.90;;;;;;;;;;5026192;28;20136;-83
2021/09/09 18:41:21;;;;;;;13.02;6.68;;;;;;;;;;5027840;28;20733;-83
2021/09/09 18:43:49;;;;;;;8.38;6.35;;;;;;;;;;5016130;28;21915;-82
2021/09/09 18:46:16;;;;;;;11.27;7.20;;;;;;;;;;5025362;28;20045;-82
2021/09/09 18:48:45;;;;;;;10.55;6.63;;;;;;;;;;5037924;28;20089;-82
2021/09/09 18:51:16;;;;;;;9.63;6.57;;;;;;;;;;5028822;28;20038;-82
2021/09/09 18:53:43;;;;;;;11.20;6.35;;;;;;;;;;5040878;28;20041;-84
2021/09/09 18:56:11;;;;;;;11.25;7.47;;;;;;;;;;5035421;28;20068;-84
2021/09/09 18:58:39;;;;;;;11.00;7.25;;;;;;;;;;5038849;28;20030;-83
2021/09/09 19:01:06;;;;;;;12.30;7.60;;;;;;;;;;5055944;28;20063;-84
2021/09/09 19:03:35;;;;;;;11.07;7.07;;;;;;;;;;5036622;28;20050;-84
2021/09/09 19:06:04;;;;;;;10.00;6.65;;;;;;;;;;5006284;28;20052;-83
2021/09/09 19:08:31;;;;;;;12.25;7.00;;;;;;;;;;5028430;28;20041;-84
2021/09/09 19:10:59;;;;;;;8.07;7.18;;;;;;;;;;5009003;28;20121;-84
2021/09/09 19:13:27;;;;;;;11.98;6.95;;;;;;;;;;5030825;28;20418;-84
2021/09/09 19:15:56;;;;;;;10.75;6.93;;;;;;;;;;5011334;28;20129;-83
2021/09/09 19:18:24;;;;;;;8.75;7.15;;;;;;;;;;5026522;28;20125;-82
2021/09/09 19:20:51;;;;;;;8.85;7.25;;;;;;;;;;5031146;28;20439;-82
2021/09/09 19:23:21;;;;;;;8.30;6.90;;;;;;;;;;5030344;28;20037;-82
2021/09/09 19:25:48;;;;;;;9.95;7.18;;;;;;;;;;5025596;28;20124;-82